EHKD/DHR METAR and TAF weather

Enter ICAO airport designator
Station Type Date Time Source
EHKD METAR 2020/02/16 20:15 UTC NOAA

EHKD 162015Z AUTO 24023KT 9999 FEW021 OVC130 08/05 Q0997 BLU


Station Type Date Time Source
EHKD Decoded METAR 2020/02/16 20:15 UTC NOAA

De Kooy, Netherlands (EHKD) 52-55N 004-47E 14M
Feb 16, 2020 - 03:15 PM EST / 2020.02.16 2015 UTC
Wind: from the WSW (240 degrees) at 26 MPH (23 KT):0
Visibility: greater than 7 mile(s):0
Sky conditions: overcast
Temperature: 46 F (8 C)
Dew Point: 41 F (5 C)
Relative Humidity: 81%
Pressure (altimeter): 29.44 in. Hg (0997 hPa)
ob: EHKD 162015Z AUTO 24023KT 9999 FEW021 OVC130 08/05 Q0997 BLU
cycle: 20

Station Type Date Time Source
EHKD TAF 2020/02/16 14:54 UTC NOAA

TAF TAF EHKD 161346Z 1614/1702 20016G26KT 9999 BKN020 PROB40
TEMPO 1614/1617 2500 RADZ SCT004 BKN008
BECMG 1617/1620 24024G34KT PROB30
TEMPO 1617/1622 23025G45KT SCT016CB BKN020
BECMG 1623/1702 23025G42KT

Example: see airport list